createdAt,value
2023-05-06T00:02:05.724Z,3.60
2023-05-06T00:04:32.319Z,3.53
2023-05-06T00:06:58.925Z,3.55
2023-05-06T00:09:25.638Z,3.50
2023-05-06T00:11:53.634Z,3.70
2023-05-06T00:14:20.239Z,3.50
2023-05-06T00:16:46.882Z,3.50
2023-05-06T00:19:13.598Z,3.30
2023-05-06T00:21:40.398Z,3.40
2023-05-06T00:24:07.160Z,3.40
2023-05-06T00:26:33.849Z,3.00
2023-05-06T00:29:02.040Z,3.40
2023-05-06T00:31:28.807Z,3.45
2023-05-06T00:33:55.389Z,3.88
2023-05-06T00:36:22.028Z,5.25
2023-05-06T00:38:49.545Z,5.43
2023-05-06T00:41:16.169Z,5.43
2023-05-06T00:43:42.831Z,4.90
2023-05-06T00:46:11.061Z,5.32
2023-05-06T00:48:38.273Z,4.78
2023-05-06T00:51:05.086Z,4.60
2023-05-06T00:53:31.764Z,4.70
2023-05-06T00:55:58.512Z,4.70
2023-05-06T00:58:25.225Z,5.38
2023-05-06T01:00:51.900Z,5.05
2023-05-06T01:06:07.946Z,4.72
2023-05-06T01:08:41.895Z,5.07
2023-05-06T01:11:15.600Z,5.75
2023-05-06T01:13:47.074Z,6.18
2023-05-06T01:16:15.720Z,5.33
2023-05-06T01:18:44.850Z,6.40
2023-05-06T01:21:11.832Z,6.32
2023-05-06T01:23:52.970Z,5.95
2023-05-06T01:26:19.590Z,7.10
2023-05-06T01:28:46.206Z,6.07
2023-05-06T01:31:17.068Z,5.75
2023-05-06T01:33:50.904Z,5.97
2023-05-06T01:36:24.358Z,5.55
2023-05-06T01:38:57.653Z,5.80
2023-05-06T01:41:25.323Z,5.60
2023-05-06T01:43:54.154Z,6.35
2023-05-06T01:46:22.410Z,6.25
2023-05-06T01:48:52.515Z,6.35
2023-05-06T01:51:20.380Z,6.47
2023-05-06T01:53:47.184Z,6.37
2023-05-06T01:56:15.787Z,6.93
2023-05-06T01:58:42.469Z,6.45
2023-05-06T02:01:09.189Z,6.50
2023-05-06T02:03:35.962Z,5.63
2023-05-06T02:06:02.839Z,5.47
2023-05-06T02:08:29.597Z,5.72
2023-05-06T02:10:56.169Z,6.05
2023-05-06T02:13:24.194Z,6.43
2023-05-06T02:15:52.993Z,6.53
2023-05-06T02:18:19.678Z,6.60
2023-05-06T02:20:46.350Z,7.13
2023-05-06T02:23:13.013Z,7.38
2023-05-06T02:25:39.614Z,8.15
2023-05-06T02:28:06.343Z,7.75
2023-05-06T02:30:34.471Z,8.77
2023-05-06T02:33:01.181Z,8.82
2023-05-06T02:35:27.910Z,8.73
2023-05-06T02:37:54.586Z,9.60
2023-05-06T02:40:21.242Z,8.90
2023-05-06T02:42:47.922Z,8.90
2023-05-06T02:45:14.515Z,7.80
2023-05-06T02:47:42.617Z,7.75
2023-05-06T02:50:09.679Z,6.95
2023-05-06T02:52:36.276Z,7.22
2023-05-06T02:55:03.187Z,7.40
2023-05-06T02:57:29.747Z,6.63
2023-05-06T02:59:56.474Z,7.05
2023-05-06T03:02:23.101Z,5.72
2023-05-06T03:04:51.106Z,6.55
2023-05-06T03:07:17.759Z,6.60
2023-05-06T03:09:44.345Z,6.43
2023-05-06T03:12:11.028Z,7.03
2023-05-06T03:14:37.669Z,6.38
2023-05-06T03:17:04.406Z,6.43
2023-05-06T03:19:31.002Z,5.77
2023-05-06T03:21:59.007Z,5.65
2023-05-06T03:24:25.718Z,6.10
2023-05-06T03:26:52.357Z,5.55
2023-05-06T03:29:18.980Z,5.75
2023-05-06T03:31:45.644Z,6.37
2023-05-06T03:34:12.264Z,5.88
2023-05-06T03:36:38.952Z,5.50
2023-05-06T03:39:07.196Z,5.07
2023-05-06T03:41:33.869Z,6.25
2023-05-06T03:44:00.458Z,6.20
2023-05-06T03:46:27.196Z,7.25
2023-05-06T03:48:53.841Z,5.88
2023-05-06T03:51:20.451Z,5.68
2023-05-06T03:53:47.166Z,5.72
2023-05-06T03:56:15.161Z,5.07
2023-05-06T03:58:41.760Z,5.20
2023-05-06T04:01:08.348Z,5.78
2023-05-06T04:03:35.083Z,6.10
2023-05-06T04:06:01.736Z,6.63
2023-05-06T04:08:28.352Z,7.17
2023-05-06T04:10:55.019Z,6.72
2023-05-06T04:13:23.402Z,7.22
2023-05-06T04:15:50.126Z,6.93
2023-05-06T04:18:16.818Z,6.72
2023-05-06T04:20:45.520Z,6.53
2023-05-06T04:23:12.078Z,6.53
2023-05-06T04:25:38.667Z,6.43
2023-05-06T04:28:05.529Z,5.78
2023-05-06T04:30:33.466Z,6.90
2023-05-06T04:33:00.161Z,6.20
2023-05-06T04:35:26.835Z,6.18
2023-05-06T04:37:53.477Z,6.78
2023-05-06T04:40:20.273Z,7.07
2023-05-06T04:42:46.847Z,7.03
2023-05-06T04:45:13.716Z,6.27
2023-05-06T04:47:41.758Z,6.55
2023-05-06T04:50:09.174Z,6.38
2023-05-06T04:52:36.103Z,6.05
2023-05-06T04:55:03.271Z,5.95
2023-05-06T04:57:30.601Z,5.90
2023-05-06T04:59:57.533Z,5.32
2023-05-06T05:02:24.255Z,5.70
2023-05-06T05:04:52.301Z,5.90
2023-05-06T05:07:18.897Z,5.45
2023-05-06T05:09:45.554Z,5.23
2023-05-06T05:12:12.341Z,4.78
2023-05-06T05:14:38.896Z,5.70
2023-05-06T05:17:05.561Z,5.97
2023-05-06T05:19:32.221Z,5.75
2023-05-06T05:22:00.186Z,4.73
2023-05-06T05:24:26.828Z,5.03
2023-05-06T05:26:53.524Z,4.90
2023-05-06T05:29:20.088Z,4.07
2023-05-06T05:31:46.803Z,3.95
2023-05-06T05:34:13.453Z,4.60
2023-05-06T05:36:40.107Z,4.82
2023-05-06T05:39:08.105Z,5.18
2023-05-06T05:41:34.677Z,4.28
2023-05-06T05:44:01.235Z,5.05
2023-05-06T05:46:27.886Z,4.77
2023-05-06T05:48:54.549Z,4.38
2023-05-06T05:51:21.985Z,4.90
2023-05-06T05:53:48.626Z,4.75
2023-05-06T05:56:16.605Z,4.30
2023-05-06T05:58:43.272Z,5.10
2023-05-06T06:01:09.890Z,5.57
2023-05-06T06:03:36.861Z,6.40
2023-05-06T06:06:04.061Z,6.53
2023-05-06T06:08:30.677Z,5.45
2023-05-06T06:10:57.451Z,5.90
2023-05-06T06:13:27.911Z,5.80
2023-05-06T06:15:56.150Z,6.72
2023-05-06T06:18:23.075Z,6.35
2023-05-06T06:20:51.056Z,6.47
2023-05-06T06:23:19.924Z,5.83
2023-05-06T06:25:46.598Z,6.00
2023-05-06T06:28:13.258Z,6.40
2023-05-06T06:30:41.486Z,5.30
2023-05-06T06:33:08.157Z,5.88
2023-05-06T06:35:34.875Z,6.30
2023-05-06T06:38:01.640Z,5.55
2023-05-06T06:40:28.273Z,6.00
2023-05-06T06:42:54.947Z,5.88
2023-05-06T06:45:21.737Z,6.15
2023-05-06T06:47:49.716Z,6.50
2023-05-06T06:50:16.394Z,6.43
2023-05-06T06:52:43.066Z,6.15
2023-05-06T06:55:10.660Z,5.93
2023-05-06T06:57:37.490Z,5.90
2023-05-06T07:00:04.489Z,6.97
2023-05-06T07:02:31.178Z,6.80
2023-05-06T07:04:59.193Z,7.20
2023-05-06T07:07:25.935Z,6.03
2023-05-06T07:09:52.627Z,6.43
2023-05-06T07:12:19.212Z,6.30
2023-05-06T07:14:45.802Z,6.28
2023-05-06T07:17:12.611Z,6.65
2023-05-06T07:19:39.319Z,6.43
2023-05-06T07:22:07.370Z,5.93
2023-05-06T07:24:33.982Z,5.97
2023-05-06T07:27:01.195Z,5.50
2023-05-06T07:29:28.237Z,5.38
2023-05-06T07:31:54.878Z,5.20
2023-05-06T07:34:21.555Z,5.32
2023-05-06T07:36:48.285Z,5.70
2023-05-06T07:39:16.327Z,5.50
2023-05-06T07:41:42.958Z,6.22
2023-05-06T07:44:09.620Z,5.95
2023-05-06T07:46:36.495Z,6.28
2023-05-06T07:49:03.330Z,5.83
2023-05-06T07:51:30.034Z,6.45
2023-05-06T07:53:56.631Z,6.10
2023-05-06T07:56:24.643Z,5.63
2023-05-06T07:58:51.268Z,5.03
2023-05-06T08:01:17.916Z,5.00
2023-05-06T08:03:44.640Z,5.10
2023-05-06T08:06:11.359Z,5.13
2023-05-06T08:08:37.952Z,4.70
2023-05-06T08:11:04.684Z,4.53
2023-05-06T08:13:32.668Z,4.90
2023-05-06T08:15:59.346Z,5.13
2023-05-06T08:18:26.058Z,5.68
2023-05-06T08:20:52.663Z,5.28
2023-05-06T08:23:19.252Z,4.75
2023-05-06T08:25:45.919Z,5.13
2023-05-06T08:28:12.625Z,4.95
2023-05-06T08:30:40.604Z,5.47
2023-05-06T08:33:07.201Z,5.50
2023-05-06T08:35:33.796Z,5.20
2023-05-06T08:38:00.356Z,4.43
2023-05-06T08:40:27.527Z,4.43
2023-05-06T08:42:55.378Z,4.25
2023-05-06T08:45:22.085Z,4.25
2023-05-06T08:47:50.308Z,4.60
2023-05-06T08:50:16.999Z,3.67
2023-05-06T08:52:43.951Z,3.17
2023-05-06T08:55:11.500Z,3.65
2023-05-06T08:57:38.483Z,3.60
2023-05-06T09:00:06.430Z,3.28
2023-05-06T09:02:33.067Z,3.57
2023-05-06T09:05:01.617Z,3.38
2023-05-06T09:07:28.302Z,3.67
2023-05-06T09:09:55.410Z,3.80
2023-05-06T09:12:23.841Z,3.67
2023-05-06T09:14:50.651Z,3.50
2023-05-06T09:17:18.071Z,2.78
2023-05-06T09:19:44.727Z,3.67
2023-05-06T09:22:12.697Z,3.65
2023-05-06T09:24:39.697Z,3.72
2023-05-06T09:27:07.525Z,3.53
2023-05-06T09:29:35.591Z,3.65
2023-05-06T09:32:05.878Z,4.15
2023-05-06T09:34:33.244Z,4.28
2023-05-06T09:37:00.769Z,4.55
2023-05-06T09:39:28.882Z,3.37
2023-05-06T09:41:55.566Z,3.65
2023-05-06T09:44:22.419Z,3.30
2023-05-06T09:46:49.087Z,4.00
2023-05-06T09:49:15.844Z,3.90
2023-05-06T09:51:44.086Z,3.50
2023-05-06T09:54:11.013Z,4.28
2023-05-06T09:56:39.293Z,3.42
2023-05-06T09:59:06.608Z,3.25
2023-05-06T10:01:37.173Z,4.07
2023-05-06T10:04:08.877Z,3.00
2023-05-06T10:06:36.680Z,3.00
2023-05-06T10:09:04.440Z,3.40
2023-05-06T10:11:31.968Z,3.38
2023-05-06T10:14:01.123Z,3.90
2023-05-06T10:16:28.130Z,2.93
2023-05-06T10:18:55.942Z,2.63
2023-05-06T10:21:25.522Z,3.22
2023-05-06T10:23:57.205Z,2.72
2023-05-06T10:26:26.654Z,4.10
2023-05-06T10:28:53.563Z,3.33
2023-05-06T10:31:21.627Z,2.90
2023-05-06T10:33:50.313Z,2.40
2023-05-06T10:36:19.140Z,3.00
2023-05-06T10:38:48.615Z,3.05
2023-05-06T10:41:16.294Z,2.40
2023-05-06T10:43:43.820Z,2.47
2023-05-06T10:46:12.267Z,2.55
2023-05-06T10:49:16.708Z,2.30
2023-05-06T10:51:45.648Z,2.17
2023-05-06T10:54:22.487Z,1.93
2023-05-06T10:57:10.362Z,1.80
2023-05-06T10:59:37.075Z,1.85
2023-05-06T11:02:09.769Z,1.58
2023-05-06T11:04:38.614Z,1.65
2023-05-06T11:07:10.451Z,1.70
2023-05-06T11:09:55.386Z,1.70
2023-05-06T11:12:22.248Z,1.38
2023-05-06T11:14:49.457Z,1.33
2023-05-06T11:17:32.885Z,1.70
2023-05-06T11:20:20.671Z,0.97
2023-05-06T11:22:47.251Z,2.63
2023-05-06T11:25:13.989Z,1.60
2023-05-06T11:27:40.628Z,1.60
2023-05-06T11:30:13.467Z,1.25
2023-05-06T11:32:42.783Z,1.33
2023-05-06T11:35:09.734Z,1.70
2023-05-06T11:37:37.769Z,1.48
2023-05-06T11:40:14.131Z,1.33
2023-05-06T11:42:40.984Z,1.52
2023-05-06T11:45:08.993Z,1.50
2023-05-06T11:47:35.626Z,1.73
2023-05-06T11:50:03.627Z,1.70
2023-05-06T11:52:30.422Z,1.90
2023-05-06T11:54:58.409Z,2.22
2023-05-06T11:57:25.077Z,1.57
2023-05-06T11:59:54.088Z,1.60
2023-05-06T12:02:21.269Z,1.75
2023-05-06T12:04:48.558Z,1.50
2023-05-06T12:07:16.010Z,1.65
2023-05-06T12:09:44.850Z,1.30
2023-05-06T12:12:16.389Z,1.25
2023-05-06T12:14:44.148Z,1.40
2023-05-06T12:17:11.706Z,1.38
2023-05-06T12:19:38.863Z,1.00
2023-05-06T12:22:15.693Z,1.30
2023-05-06T12:24:42.396Z,0.85
2023-05-06T12:27:09.052Z,1.13
2023-05-06T12:29:37.001Z,1.00
2023-05-06T12:32:08.269Z,1.13
2023-05-06T12:34:38.496Z,0.97
2023-05-06T12:37:05.665Z,0.82
2023-05-06T12:39:34.700Z,1.25
2023-05-06T12:42:01.413Z,1.10
2023-05-06T12:44:32.793Z,1.27
2023-05-06T12:47:01.774Z,1.13
2023-05-06T12:49:44.518Z,1.45
2023-05-06T12:52:11.994Z,1.20
2023-05-06T12:54:38.634Z,1.13
2023-05-06T12:57:05.378Z,1.20
2023-05-06T12:59:32.371Z,1.10
2023-05-06T13:01:59.205Z,1.25
2023-05-06T13:04:27.360Z,1.50
2023-05-06T13:06:54.723Z,1.33
2023-05-06T13:09:21.808Z,1.52
2023-05-06T13:11:48.527Z,1.33
2023-05-06T13:14:15.178Z,1.48
2023-05-06T13:16:42.335Z,1.50
2023-05-06T13:19:21.032Z,1.33
2023-05-06T13:21:53.115Z,1.17
2023-05-06T13:24:19.793Z,1.07
2023-05-06T13:26:46.369Z,1.10
2023-05-06T13:29:12.993Z,1.00
2023-05-06T13:31:39.616Z,1.27
2023-05-06T13:34:06.229Z,1.15
2023-05-06T13:36:32.860Z,1.37
2023-05-06T13:39:00.895Z,1.15
2023-05-06T13:41:27.756Z,1.50
2023-05-06T13:43:54.387Z,1.00
2023-05-06T13:46:20.999Z,1.15
2023-05-06T13:48:47.763Z,1.00
2023-05-06T13:51:14.470Z,1.25
2023-05-06T13:53:41.178Z,1.20
2023-05-06T13:56:09.430Z,0.90
2023-05-06T13:58:36.025Z,1.20
2023-05-06T14:01:03.047Z,1.20
2023-05-06T14:03:29.802Z,1.10
2023-05-06T14:05:56.438Z,1.42
2023-05-06T14:08:23.075Z,0.90
2023-05-06T14:10:49.667Z,1.45
2023-05-06T14:13:17.788Z,1.03
2023-05-06T14:15:44.581Z,1.15
2023-05-06T14:18:11.325Z,1.10
2023-05-06T14:20:38.026Z,1.40
2023-05-06T14:23:05.013Z,1.15
2023-05-06T14:25:31.751Z,0.70
2023-05-06T14:27:58.549Z,0.90
2023-05-06T14:30:26.603Z,1.20
2023-05-06T14:32:53.300Z,1.20
2023-05-06T14:35:20.236Z,1.35
2023-05-06T14:37:46.812Z,1.10
2023-05-06T14:40:14.992Z,0.88
2023-05-06T14:42:41.603Z,1.08
2023-05-06T14:45:09.364Z,0.75
2023-05-06T14:47:38.243Z,0.90
2023-05-06T14:50:06.875Z,0.80
2023-05-06T14:52:33.500Z,0.70
2023-05-06T14:55:00.193Z,0.85
2023-05-06T14:57:26.767Z,1.00
2023-05-06T14:59:53.784Z,0.80
2023-05-06T15:02:20.425Z,0.90
2023-05-06T15:04:48.430Z,0.75
2023-05-06T15:07:15.054Z,1.00
2023-05-06T15:09:41.683Z,0.88
2023-05-06T15:12:08.303Z,0.95
2023-05-06T15:14:35.011Z,0.97
2023-05-06T15:17:01.696Z,1.00
2023-05-06T15:19:28.369Z,0.95
2023-05-06T15:21:56.309Z,0.90
2023-05-06T15:24:23.025Z,0.90
2023-05-06T15:26:49.745Z,0.70
2023-05-06T15:29:16.429Z,1.13
2023-05-06T15:31:44.505Z,0.80
2023-05-06T15:34:12.323Z,1.02
2023-05-06T15:36:39.402Z,1.00
2023-05-06T15:39:07.574Z,1.00
2023-05-06T15:41:36.225Z,1.00
2023-05-06T15:44:05.847Z,0.80
2023-05-06T15:46:33.073Z,0.90
2023-05-06T15:51:30.719Z,1.00
2023-05-06T15:53:57.649Z,0.60
2023-05-06T15:56:27.106Z,1.13
2023-05-06T15:58:55.359Z,0.80
2023-05-06T16:01:33.575Z,1.00
2023-05-06T16:04:09.027Z,1.00
2023-05-06T16:06:35.771Z,0.90
2023-05-06T16:09:02.406Z,0.90
2023-05-06T16:11:30.341Z,1.00
2023-05-06T16:13:56.955Z,0.98
2023-05-06T16:16:23.696Z,1.00
2023-05-06T16:18:50.307Z,0.98
2023-05-06T16:21:16.911Z,1.20
2023-05-06T16:23:43.615Z,1.13
2023-05-06T16:26:10.234Z,0.77
2023-05-06T16:28:40.167Z,0.97
2023-05-06T16:31:07.130Z,0.93
2023-05-06T16:33:33.800Z,1.40
2023-05-06T16:36:00.405Z,1.90
2023-05-06T16:38:27.030Z,1.70
2023-05-06T16:40:53.699Z,1.57
2023-05-06T16:43:20.385Z,1.23
2023-05-06T16:45:48.488Z,1.67
2023-05-06T16:48:15.751Z,1.60
2023-05-06T16:50:42.564Z,1.10
2023-05-06T16:53:09.474Z,1.20
2023-05-06T16:55:36.392Z,1.30
2023-05-06T16:58:03.102Z,1.10
2023-05-06T17:00:30.236Z,0.82
2023-05-06T17:02:58.258Z,1.20
2023-05-06T17:05:24.921Z,6.70
2023-05-06T17:07:51.477Z,8.25
2023-05-06T17:10:18.093Z,3.97
2023-05-06T17:12:44.718Z,1.70
2023-05-06T17:15:11.913Z,1.40
2023-05-06T17:17:39.284Z,1.43
2023-05-06T17:20:09.201Z,1.75
2023-05-06T17:22:36.020Z,1.98
2023-05-06T17:25:02.852Z,1.33
2023-05-06T17:27:29.467Z,1.70
2023-05-06T17:29:56.204Z,1.40
2023-05-06T17:32:22.926Z,1.30
2023-05-06T17:34:49.739Z,1.30
2023-05-06T17:37:17.737Z,0.98
2023-05-06T17:39:44.326Z,1.13
2023-05-06T17:42:10.895Z,1.00
2023-05-06T17:44:37.532Z,1.10
2023-05-06T17:47:04.144Z,1.20
2023-05-06T17:49:30.826Z,1.40
2023-05-06T17:51:58.145Z,1.52
2023-05-06T17:54:29.289Z,1.10
2023-05-06T17:56:55.878Z,1.20
2023-05-06T17:59:22.524Z,1.20
2023-05-06T18:01:49.191Z,0.90
2023-05-06T18:04:16.025Z,1.10
2023-05-06T18:06:44.303Z,0.80
2023-05-06T18:09:10.946Z,0.70
2023-05-06T18:11:39.037Z,1.02
2023-05-06T18:14:05.985Z,1.00
2023-05-06T18:16:32.850Z,1.17
2023-05-06T18:18:59.516Z,0.80
2023-05-06T18:21:26.282Z,1.10
2023-05-06T18:23:56.090Z,1.00
2023-05-06T18:29:03.233Z,0.90
2023-05-06T18:31:30.164Z,0.90
2023-05-06T18:33:56.861Z,1.00
2023-05-06T18:36:23.529Z,1.20
2023-05-06T18:38:50.112Z,1.30
2023-05-06T18:41:16.746Z,1.33
2023-05-06T18:43:43.632Z,0.90
2023-05-06T18:46:11.627Z,1.17
2023-05-06T18:48:38.249Z,1.23
2023-05-06T18:51:12.537Z,1.13
2023-05-06T18:53:39.346Z,1.02
2023-05-06T18:56:06.973Z,1.00
2023-05-06T18:58:34.972Z,1.10
2023-05-06T19:01:01.660Z,1.25
2023-05-06T19:03:29.961Z,1.10
2023-05-06T19:05:58.633Z,2.28
2023-05-06T19:08:25.225Z,2.00
2023-05-06T19:10:51.814Z,1.75
2023-05-06T19:13:18.540Z,1.65
2023-05-06T19:15:45.256Z,1.85
2023-05-06T19:18:12.066Z,1.60
2023-05-06T19:20:41.859Z,1.43
2023-05-06T19:23:08.862Z,1.55
2023-05-06T19:25:37.668Z,1.63
2023-05-06T19:28:04.991Z,1.60
2023-05-06T19:30:33.436Z,1.95
2023-05-06T19:33:00.852Z,1.70
2023-05-06T19:35:27.571Z,1.80
2023-05-06T19:37:55.663Z,1.48
2023-05-06T19:40:22.299Z,1.70
2023-05-06T19:42:48.940Z,1.27
2023-05-06T19:45:17.511Z,1.40
2023-05-06T19:47:45.734Z,1.50
2023-05-06T19:50:12.994Z,1.90
2023-05-06T19:52:39.986Z,2.30
2023-05-06T19:55:09.765Z,4.30
2023-05-06T19:57:36.682Z,2.43
2023-05-06T20:00:04.095Z,1.92
2023-05-06T20:02:41.071Z,1.80
2023-05-06T20:05:08.828Z,1.98
2023-05-06T20:07:37.816Z,2.60
2023-05-06T20:10:04.996Z,2.17
2023-05-06T20:12:33.663Z,2.10
2023-05-06T20:15:00.387Z,2.00
2023-05-06T20:17:27.167Z,2.03
2023-05-06T20:19:53.889Z,1.90
2023-05-06T20:22:20.561Z,2.20
2023-05-06T20:24:47.195Z,2.88
2023-05-06T20:27:13.867Z,2.50
2023-05-06T20:29:42.135Z,2.42
2023-05-06T20:32:08.856Z,2.58
2023-05-06T20:34:35.472Z,2.73
2023-05-06T20:37:03.269Z,2.55
2023-05-06T20:39:29.986Z,2.72
2023-05-06T20:41:56.564Z,2.47
2023-05-06T20:44:23.180Z,3.17
2023-05-06T20:46:51.113Z,2.43
2023-05-06T20:49:18.724Z,2.40
2023-05-06T20:51:45.317Z,3.10
2023-05-06T20:54:12.042Z,2.60
2023-05-06T20:56:38.675Z,2.88
2023-05-06T20:59:05.281Z,2.23
2023-05-06T21:01:32.243Z,2.80
2023-05-06T21:04:00.316Z,2.65
2023-05-06T21:06:26.942Z,2.83
2023-05-06T21:08:53.556Z,2.63
2023-05-06T21:11:20.140Z,2.70
2023-05-06T21:13:48.229Z,2.90
2023-05-06T21:16:16.497Z,2.83
2023-05-06T21:18:43.179Z,3.00
2023-05-06T21:21:11.266Z,2.90
2023-05-06T21:23:37.912Z,2.60
2023-05-06T21:26:04.581Z,2.92
2023-05-06T21:28:31.259Z,2.92
2023-05-06T21:30:57.951Z,2.67
2023-05-06T21:33:24.604Z,2.58
2023-05-06T21:35:51.211Z,2.83
2023-05-06T21:38:19.309Z,2.40
2023-05-06T21:40:46.304Z,2.80
2023-05-06T21:43:13.102Z,2.90
2023-05-06T21:45:39.708Z,2.60
2023-05-06T21:48:06.778Z,2.70
2023-05-06T21:50:35.744Z,2.63
2023-05-06T21:53:02.397Z,2.25
2023-05-06T21:55:30.389Z,2.25
2023-05-06T21:57:57.030Z,2.63
2023-05-06T22:00:23.909Z,2.73
2023-05-06T22:02:50.629Z,2.50
2023-05-06T22:05:17.452Z,2.88
2023-05-06T22:07:44.047Z,2.28
2023-05-06T22:10:11.047Z,2.10
2023-05-06T22:12:39.122Z,2.77
2023-05-06T22:15:06.842Z,2.63
2023-05-06T22:17:33.528Z,2.15
2023-05-06T22:20:00.251Z,2.15
2023-05-06T22:22:27.359Z,2.47
2023-05-06T22:24:54.000Z,2.40
2023-05-06T22:27:20.965Z,2.35
2023-05-06T22:29:49.049Z,2.40
2023-05-06T22:32:15.681Z,2.85
2023-05-06T22:34:42.298Z,2.20
2023-05-06T22:37:09.648Z,2.70
2023-05-06T22:39:36.302Z,2.60
2023-05-06T22:42:02.936Z,2.97
2023-05-06T22:44:29.527Z,2.65
2023-05-06T22:46:57.517Z,2.70
2023-05-06T22:49:24.209Z,2.50
2023-05-06T22:51:50.842Z,3.13
2023-05-06T22:54:17.448Z,2.47
2023-05-06T22:56:44.054Z,2.40
2023-05-06T22:59:10.773Z,2.53
2023-05-06T23:01:37.488Z,2.43
2023-05-06T23:04:05.745Z,2.33
2023-05-06T23:06:32.514Z,2.80
2023-05-06T23:08:59.225Z,3.50
2023-05-06T23:11:25.910Z,2.70
2023-05-06T23:13:52.859Z,3.03
2023-05-06T23:16:19.579Z,3.22
2023-05-06T23:18:46.210Z,2.97
2023-05-06T23:21:14.635Z,3.00
2023-05-06T23:23:41.300Z,3.38
2023-05-06T23:26:07.916Z,3.30
2023-05-06T23:28:34.528Z,3.15
2023-05-06T23:31:01.182Z,3.38
2023-05-06T23:33:27.866Z,3.10
2023-05-06T23:35:54.531Z,3.70
2023-05-06T23:38:22.584Z,3.33
2023-05-06T23:40:49.455Z,3.40
2023-05-06T23:43:16.022Z,3.40
2023-05-06T23:45:42.592Z,3.72
2023-05-06T23:48:09.207Z,3.40
2023-05-06T23:50:35.904Z,3.30
2023-05-06T23:53:02.642Z,3.47
2023-05-06T23:55:31.087Z,4.10
2023-05-06T23:57:57.668Z,3.03
